sensor_id;sensor_type;location;lat;lon;timestamp;P1;durP1;ratioP1;P2;durP2;ratioP2
39098;SDS011;24844;52.380;7.018;2023-05-14T00:02:20;19.15;;;15.20;;
39098;SDS011;24844;52.380;7.018;2023-05-14T00:04:46;18.35;;;15.60;;
39098;SDS011;24844;52.380;7.018;2023-05-14T00:07:11;17.73;;;13.32;;
39098;SDS011;24844;52.380;7.018;2023-05-14T00:09:37;15.80;;;14.18;;
39098;SDS011;24844;52.380;7.018;2023-05-14T00:12:02;22.23;;;16.52;;
39098;SDS011;24844;52.380;7.018;2023-05-14T00:14:28;19.88;;;15.35;;
39098;SDS011;24844;52.380;7.018;2023-05-14T00:16:54;23.52;;;16.13;;
39098;SDS011;24844;52.380;7.018;2023-05-14T00:19:19;17.77;;;13.90;;
39098;SDS011;24844;52.380;7.018;2023-05-14T00:21:46;18.52;;;15.48;;
39098;SDS011;24844;52.380;7.018;2023-05-14T00:24:11;24.48;;;14.35;;
39098;SDS011;24844;52.380;7.018;2023-05-14T00:26:37;20.10;;;15.95;;
39098;SDS011;24844;52.380;7.018;2023-05-14T00:29:03;19.83;;;15.63;;
39098;SDS011;24844;52.380;7.018;2023-05-14T00:31:28;18.20;;;14.70;;
39098;SDS011;24844;52.380;7.018;2023-05-14T00:33:54;19.05;;;16.58;;
39098;SDS011;24844;52.380;7.018;2023-05-14T00:36:20;17.98;;;16.08;;
39098;SDS011;24844;52.380;7.018;2023-05-14T00:38:45;21.65;;;16.45;;
39098;SDS011;24844;52.380;7.018;2023-05-14T00:41:11;18.27;;;14.70;;
39098;SDS011;24844;52.380;7.018;2023-05-14T00:43:36;19.13;;;15.95;;
39098;SDS011;24844;52.380;7.018;2023-05-14T00:46:02;22.08;;;16.20;;
39098;SDS011;24844;52.380;7.018;2023-05-14T00:48:28;20.73;;;17.20;;
39098;SDS011;24844;52.380;7.018;2023-05-14T00:50:53;23.95;;;17.00;;
39098;SDS011;24844;52.380;7.018;2023-05-14T00:53:19;26.45;;;17.65;;
39098;SDS011;24844;52.380;7.018;2023-05-14T00:55:45;23.88;;;18.73;;
39098;SDS011;24844;52.380;7.018;2023-05-14T00:58:12;20.77;;;16.75;;
39098;SDS011;24844;52.380;7.018;2023-05-14T01:00:39;20.63;;;15.60;;
39098;SDS011;24844;52.380;7.018;2023-05-14T01:03:06;23.25;;;16.98;;
39098;SDS011;24844;52.380;7.018;2023-05-14T01:05:38;25.17;;;17.92;;
39098;SDS011;24844;52.380;7.018;2023-05-14T01:08:31;23.92;;;19.15;;
39098;SDS011;24844;52.380;7.018;2023-05-14T01:11:16;23.60;;;17.77;;
39098;SDS011;24844;52.380;7.018;2023-05-14T01:13:50;22.85;;;18.05;;
39098;SDS011;24844;52.380;7.018;2023-05-14T01:16:23;22.73;;;18.23;;
39098;SDS011;24844;52.380;7.018;2023-05-14T01:21:37;23.50;;;18.15;;
39098;SDS011;24844;52.380;7.018;2023-05-14T01:24:07;21.75;;;18.38;;
39098;SDS011;24844;52.380;7.018;2023-05-14T01:26:33;26.42;;;21.58;;
39098;SDS011;24844;52.380;7.018;2023-05-14T01:29:01;22.98;;;17.15;;
39098;SDS011;24844;52.380;7.018;2023-05-14T01:31:44;19.35;;;16.80;;
39098;SDS011;24844;52.380;7.018;2023-05-14T01:34:13;19.05;;;15.63;;
39098;SDS011;24844;52.380;7.018;2023-05-14T01:36:39;22.70;;;18.98;;
39098;SDS011;24844;52.380;7.018;2023-05-14T01:39:05;21.77;;;17.80;;
39098;SDS011;24844;52.380;7.018;2023-05-14T01:41:35;23.20;;;18.77;;
39098;SDS011;24844;52.380;7.018;2023-05-14T01:44:03;24.77;;;20.42;;
39098;SDS011;24844;52.380;7.018;2023-05-14T01:46:32;34.03;;;20.45;;
39098;SDS011;24844;52.380;7.018;2023-05-14T01:48:58;21.25;;;16.30;;
39098;SDS011;24844;52.380;7.018;2023-05-14T01:51:24;23.23;;;19.00;;
39098;SDS011;24844;52.380;7.018;2023-05-14T01:53:50;24.27;;;20.23;;
39098;SDS011;24844;52.380;7.018;2023-05-14T01:56:16;23.50;;;19.38;;
39098;SDS011;24844;52.380;7.018;2023-05-14T01:58:45;24.48;;;19.38;;
39098;SDS011;24844;52.380;7.018;2023-05-14T02:01:11;30.05;;;21.55;;
39098;SDS011;24844;52.380;7.018;2023-05-14T02:03:36;23.80;;;18.52;;
39098;SDS011;24844;52.380;7.018;2023-05-14T02:06:02;24.95;;;20.80;;
39098;SDS011;24844;52.380;7.018;2023-05-14T02:08:28;23.25;;;19.45;;
39098;SDS011;24844;52.380;7.018;2023-05-14T02:10:54;22.67;;;17.63;;
39098;SDS011;24844;52.380;7.018;2023-05-14T02:13:19;21.30;;;18.85;;
39098;SDS011;24844;52.380;7.018;2023-05-14T02:15:45;23.38;;;20.38;;
39098;SDS011;24844;52.380;7.018;2023-05-14T02:18:10;26.83;;;20.58;;
39098;SDS011;24844;52.380;7.018;2023-05-14T02:20:36;23.08;;;17.50;;
39098;SDS011;24844;52.380;7.018;2023-05-14T02:23:02;28.88;;;21.00;;
39098;SDS011;24844;52.380;7.018;2023-05-14T02:25:27;23.13;;;19.15;;
39098;SDS011;24844;52.380;7.018;2023-05-14T02:27:53;27.35;;;20.40;;
39098;SDS011;24844;52.380;7.018;2023-05-14T02:30:18;24.63;;;20.08;;
39098;SDS011;24844;52.380;7.018;2023-05-14T02:32:45;25.08;;;21.00;;
39098;SDS011;24844;52.380;7.018;2023-05-14T02:35:10;26.00;;;20.55;;
39098;SDS011;24844;52.380;7.018;2023-05-14T02:37:36;30.48;;;22.38;;
39098;SDS011;24844;52.380;7.018;2023-05-14T02:40:01;27.10;;;21.48;;
39098;SDS011;24844;52.380;7.018;2023-05-14T02:42:28;22.90;;;18.45;;
39098;SDS011;24844;52.380;7.018;2023-05-14T02:44:53;27.17;;;21.85;;
39098;SDS011;24844;52.380;7.018;2023-05-14T02:47:19;28.10;;;19.73;;
39098;SDS011;24844;52.380;7.018;2023-05-14T02:49:45;26.80;;;19.77;;
39098;SDS011;24844;52.380;7.018;2023-05-14T02:52:10;30.83;;;21.23;;
39098;SDS011;24844;52.380;7.018;2023-05-14T02:54:36;29.38;;;22.75;;
39098;SDS011;24844;52.380;7.018;2023-05-14T02:57:01;32.97;;;24.83;;
39098;SDS011;24844;52.380;7.018;2023-05-14T02:59:27;28.40;;;24.23;;
39098;SDS011;24844;52.380;7.018;2023-05-14T03:01:53;25.20;;;22.50;;
39098;SDS011;24844;52.380;7.018;2023-05-14T03:04:19;26.95;;;23.05;;
39098;SDS011;24844;52.380;7.018;2023-05-14T03:06:44;27.48;;;22.58;;
39098;SDS011;24844;52.380;7.018;2023-05-14T03:09:10;27.30;;;21.38;;
39098;SDS011;24844;52.380;7.018;2023-05-14T03:11:35;29.02;;;21.75;;
39098;SDS011;24844;52.380;7.018;2023-05-14T03:14:01;32.03;;;22.63;;
39098;SDS011;24844;52.380;7.018;2023-05-14T03:16:27;27.10;;;21.23;;
39098;SDS011;24844;52.380;7.018;2023-05-14T03:18:52;30.08;;;23.48;;
39098;SDS011;24844;52.380;7.018;2023-05-14T03:21:18;26.98;;;20.95;;
39098;SDS011;24844;52.380;7.018;2023-05-14T03:23:43;29.65;;;23.38;;
39098;SDS011;24844;52.380;7.018;2023-05-14T03:26:09;26.17;;;21.77;;
39098;SDS011;24844;52.380;7.018;2023-05-14T03:28:34;25.60;;;22.50;;
39098;SDS011;24844;52.380;7.018;2023-05-14T03:31:00;32.47;;;23.23;;
39098;SDS011;24844;52.380;7.018;2023-05-14T03:33:25;34.33;;;23.30;;
39098;SDS011;24844;52.380;7.018;2023-05-14T03:35:51;36.42;;;24.95;;
39098;SDS011;24844;52.380;7.018;2023-05-14T03:38:17;29.65;;;22.88;;
39098;SDS011;24844;52.380;7.018;2023-05-14T03:40:43;35.53;;;25.40;;
39098;SDS011;24844;52.380;7.018;2023-05-14T03:43:09;30.88;;;24.33;;
39098;SDS011;24844;52.380;7.018;2023-05-14T03:45:35;32.75;;;23.70;;
39098;SDS011;24844;52.380;7.018;2023-05-14T03:48:01;28.60;;;24.15;;
39098;SDS011;24844;52.380;7.018;2023-05-14T03:50:26;29.02;;;22.55;;
39098;SDS011;24844;52.380;7.018;2023-05-14T03:52:52;30.98;;;24.05;;
39098;SDS011;24844;52.380;7.018;2023-05-14T03:55:18;32.28;;;24.17;;
39098;SDS011;24844;52.380;7.018;2023-05-14T03:57:45;31.05;;;25.30;;
39098;SDS011;24844;52.380;7.018;2023-05-14T04:00:11;34.55;;;25.45;;
39098;SDS011;24844;52.380;7.018;2023-05-14T04:02:37;39.38;;;28.92;;
39098;SDS011;24844;52.380;7.018;2023-05-14T04:05:03;37.80;;;28.67;;
39098;SDS011;24844;52.380;7.018;2023-05-14T04:07:29;32.95;;;25.27;;
39098;SDS011;24844;52.380;7.018;2023-05-14T04:09:54;34.75;;;25.95;;
39098;SDS011;24844;52.380;7.018;2023-05-14T04:12:20;32.30;;;24.48;;
39098;SDS011;24844;52.380;7.018;2023-05-14T04:14:45;30.58;;;25.13;;
39098;SDS011;24844;52.380;7.018;2023-05-14T04:17:11;37.40;;;28.90;;
39098;SDS011;24844;52.380;7.018;2023-05-14T04:19:37;40.45;;;29.55;;
39098;SDS011;24844;52.380;7.018;2023-05-14T04:22:03;40.45;;;30.27;;
39098;SDS011;24844;52.380;7.018;2023-05-14T04:24:29;38.13;;;28.92;;
39098;SDS011;24844;52.380;7.018;2023-05-14T04:26:55;37.05;;;27.58;;
39098;SDS011;24844;52.380;7.018;2023-05-14T04:29:20;43.17;;;30.08;;
39098;SDS011;24844;52.380;7.018;2023-05-14T04:31:47;36.85;;;30.17;;
39098;SDS011;24844;52.380;7.018;2023-05-14T04:34:13;35.58;;;27.70;;
39098;SDS011;24844;52.380;7.018;2023-05-14T04:36:38;28.95;;;23.95;;
39098;SDS011;24844;52.380;7.018;2023-05-14T04:39:04;30.13;;;26.00;;
39098;SDS011;24844;52.380;7.018;2023-05-14T04:41:30;32.83;;;25.23;;
39098;SDS011;24844;52.380;7.018;2023-05-14T04:43:55;31.58;;;25.33;;
39098;SDS011;24844;52.380;7.018;2023-05-14T04:46:23;26.95;;;22.63;;
39098;SDS011;24844;52.380;7.018;2023-05-14T04:48:48;31.35;;;24.77;;
39098;SDS011;24844;52.380;7.018;2023-05-14T04:51:15;33.00;;;26.17;;
39098;SDS011;24844;52.380;7.018;2023-05-14T04:53:40;25.63;;;20.23;;
39098;SDS011;24844;52.380;7.018;2023-05-14T04:56:06;32.67;;;24.15;;
39098;SDS011;24844;52.380;7.018;2023-05-14T04:58:31;31.92;;;23.83;;
39098;SDS011;24844;52.380;7.018;2023-05-14T05:00:58;22.40;;;18.77;;
39098;SDS011;24844;52.380;7.018;2023-05-14T05:03:23;30.67;;;22.58;;
39098;SDS011;24844;52.380;7.018;2023-05-14T05:05:49;21.65;;;17.92;;
39098;SDS011;24844;52.380;7.018;2023-05-14T05:08:15;23.77;;;19.30;;
39098;SDS011;24844;52.380;7.018;2023-05-14T05:10:41;19.88;;;17.15;;
39098;SDS011;24844;52.380;7.018;2023-05-14T05:13:07;21.73;;;17.17;;
39098;SDS011;24844;52.380;7.018;2023-05-14T05:15:32;17.20;;;15.40;;
39098;SDS011;24844;52.380;7.018;2023-05-14T05:17:58;20.23;;;15.88;;
39098;SDS011;24844;52.380;7.018;2023-05-14T05:20:24;25.45;;;17.92;;
39098;SDS011;24844;52.380;7.018;2023-05-14T05:22:52;24.83;;;17.60;;
39098;SDS011;24844;52.380;7.018;2023-05-14T05:25:17;22.02;;;17.13;;
39098;SDS011;24844;52.380;7.018;2023-05-14T05:27:43;22.13;;;17.05;;
39098;SDS011;24844;52.380;7.018;2023-05-14T05:30:08;20.88;;;17.15;;
39098;SDS011;24844;52.380;7.018;2023-05-14T05:32:34;24.52;;;19.48;;
39098;SDS011;24844;52.380;7.018;2023-05-14T05:35:00;17.40;;;15.63;;
39098;SDS011;24844;52.380;7.018;2023-05-14T05:37:26;25.65;;;20.63;;
39098;SDS011;24844;52.380;7.018;2023-05-14T05:39:52;26.45;;;21.33;;
39098;SDS011;24844;52.380;7.018;2023-05-14T05:42:18;28.55;;;20.60;;
39098;SDS011;24844;52.380;7.018;2023-05-14T05:44:43;25.60;;;20.17;;
39098;SDS011;24844;52.380;7.018;2023-05-14T05:47:09;23.90;;;18.67;;
39098;SDS011;24844;52.380;7.018;2023-05-14T05:49:34;23.20;;;18.77;;
39098;SDS011;24844;52.380;7.018;2023-05-14T05:52:01;20.67;;;18.20;;
39098;SDS011;24844;52.380;7.018;2023-05-14T05:54:28;28.02;;;21.02;;
39098;SDS011;24844;52.380;7.018;2023-05-14T05:56:56;28.30;;;19.48;;
39098;SDS011;24844;52.380;7.018;2023-05-14T05:59:22;21.42;;;18.75;;
39098;SDS011;24844;52.380;7.018;2023-05-14T06:01:48;24.10;;;19.25;;
39098;SDS011;24844;52.380;7.018;2023-05-14T06:04:14;23.42;;;19.17;;
39098;SDS011;24844;52.380;7.018;2023-05-14T06:06:39;29.17;;;18.80;;
39098;SDS011;24844;52.380;7.018;2023-05-14T06:09:05;24.05;;;18.60;;
39098;SDS011;24844;52.380;7.018;2023-05-14T06:11:31;18.73;;;16.83;;
39098;SDS011;24844;52.380;7.018;2023-05-14T06:13:56;20.42;;;17.73;;
39098;SDS011;24844;52.380;7.018;2023-05-14T06:16:22;19.00;;;16.98;;
39098;SDS011;24844;52.380;7.018;2023-05-14T06:18:47;22.58;;;15.27;;
39098;SDS011;24844;52.380;7.018;2023-05-14T06:21:13;23.05;;;17.38;;
39098;SDS011;24844;52.380;7.018;2023-05-14T06:23:38;18.95;;;16.63;;
39098;SDS011;24844;52.380;7.018;2023-05-14T06:26:05;25.35;;;19.15;;
39098;SDS011;24844;52.380;7.018;2023-05-14T06:28:30;25.55;;;17.58;;
39098;SDS011;24844;52.380;7.018;2023-05-14T06:30:56;22.05;;;16.67;;
39098;SDS011;24844;52.380;7.018;2023-05-14T06:33:21;17.98;;;14.80;;
39098;SDS011;24844;52.380;7.018;2023-05-14T06:35:54;16.88;;;15.13;;
39098;SDS011;24844;52.380;7.018;2023-05-14T06:38:20;18.08;;;14.98;;
39098;SDS011;24844;52.380;7.018;2023-05-14T06:40:46;19.77;;;15.40;;
39098;SDS011;24844;52.380;7.018;2023-05-14T06:43:11;16.92;;;13.75;;
39098;SDS011;24844;52.380;7.018;2023-05-14T06:45:37;16.88;;;12.27;;
39098;SDS011;24844;52.380;7.018;2023-05-14T06:48:03;20.65;;;14.68;;
39098;SDS011;24844;52.380;7.018;2023-05-14T06:50:28;13.90;;;12.07;;
39098;SDS011;24844;52.380;7.018;2023-05-14T06:52:54;15.68;;;14.05;;
39098;SDS011;24844;52.380;7.018;2023-05-14T06:55:20;22.75;;;14.18;;
39098;SDS011;24844;52.380;7.018;2023-05-14T06:57:46;16.10;;;12.55;;
39098;SDS011;24844;52.380;7.018;2023-05-14T07:00:11;16.45;;;13.48;;
39098;SDS011;24844;52.380;7.018;2023-05-14T07:02:38;15.95;;;12.85;;
39098;SDS011;24844;52.380;7.018;2023-05-14T07:05:04;14.77;;;11.95;;
39098;SDS011;24844;52.380;7.018;2023-05-14T07:07:29;12.90;;;11.52;;
39098;SDS011;24844;52.380;7.018;2023-05-14T07:09:55;13.57;;;10.60;;
39098;SDS011;24844;52.380;7.018;2023-05-14T07:12:20;11.32;;;9.52;;
39098;SDS011;24844;52.380;7.018;2023-05-14T07:14:46;12.55;;;8.70;;
39098;SDS011;24844;52.380;7.018;2023-05-14T07:17:12;11.50;;;8.65;;
39098;SDS011;24844;52.380;7.018;2023-05-14T07:19:37;12.75;;;8.65;;
39098;SDS011;24844;52.380;7.018;2023-05-14T07:22:03;11.10;;;9.35;;
39098;SDS011;24844;52.380;7.018;2023-05-14T07:24:28;15.07;;;9.50;;
39098;SDS011;24844;52.380;7.018;2023-05-14T07:26:54;14.35;;;10.00;;
39098;SDS011;24844;52.380;7.018;2023-05-14T07:29:21;10.90;;;8.68;;
39098;SDS011;24844;52.380;7.018;2023-05-14T07:31:47;10.77;;;8.10;;
39098;SDS011;24844;52.380;7.018;2023-05-14T07:34:12;9.90;;;8.25;;
39098;SDS011;24844;52.380;7.018;2023-05-14T07:36:38;9.10;;;6.45;;
39098;SDS011;24844;52.380;7.018;2023-05-14T07:39:03;9.23;;;8.23;;
39098;SDS011;24844;52.380;7.018;2023-05-14T07:41:29;9.68;;;7.93;;
39098;SDS011;24844;52.380;7.018;2023-05-14T07:43:54;10.88;;;7.15;;
39098;SDS011;24844;52.380;7.018;2023-05-14T07:46:20;7.35;;;5.95;;
39098;SDS011;24844;52.380;7.018;2023-05-14T07:48:46;9.75;;;6.63;;
39098;SDS011;24844;52.380;7.018;2023-05-14T07:51:11;8.32;;;6.40;;
39098;SDS011;24844;52.380;7.018;2023-05-14T07:53:37;6.47;;;5.65;;
39098;SDS011;24844;52.380;7.018;2023-05-14T07:56:02;7.25;;;6.07;;
39098;SDS011;24844;52.380;7.018;2023-05-14T07:58:28;9.10;;;6.78;;
39098;SDS011;24844;52.380;7.018;2023-05-14T08:00:54;7.75;;;5.43;;
39098;SDS011;24844;52.380;7.018;2023-05-14T08:03:20;7.30;;;6.60;;
39098;SDS011;24844;52.380;7.018;2023-05-14T08:05:46;6.07;;;5.10;;
39098;SDS011;24844;52.380;7.018;2023-05-14T08:08:11;6.38;;;5.30;;
39098;SDS011;24844;52.380;7.018;2023-05-14T08:10:37;7.38;;;5.82;;
39098;SDS011;24844;52.380;7.018;2023-05-14T08:13:03;6.95;;;5.40;;
39098;SDS011;24844;52.380;7.018;2023-05-14T08:15:28;6.38;;;5.15;;
39098;SDS011;24844;52.380;7.018;2023-05-14T08:17:54;8.27;;;5.28;;
39098;SDS011;24844;52.380;7.018;2023-05-14T08:20:19;6.50;;;5.35;;
39098;SDS011;24844;52.380;7.018;2023-05-14T08:22:46;7.78;;;6.30;;
39098;SDS011;24844;52.380;7.018;2023-05-14T08:25:11;6.32;;;5.68;;
39098;SDS011;24844;52.380;7.018;2023-05-14T08:27:37;6.13;;;4.82;;
39098;SDS011;24844;52.380;7.018;2023-05-14T08:30:03;9.55;;;5.55;;
39098;SDS011;24844;52.380;7.018;2023-05-14T08:32:30;5.65;;;4.80;;
39098;SDS011;24844;52.380;7.018;2023-05-14T08:34:55;5.45;;;4.78;;
39098;SDS011;24844;52.380;7.018;2023-05-14T08:37:21;7.05;;;5.00;;
39098;SDS011;24844;52.380;7.018;2023-05-14T08:39:46;7.80;;;5.05;;
39098;SDS011;24844;52.380;7.018;2023-05-14T08:42:12;5.03;;;4.30;;
39098;SDS011;24844;52.380;7.018;2023-05-14T08:44:48;4.90;;;3.72;;
39098;SDS011;24844;52.380;7.018;2023-05-14T08:47:26;5.07;;;3.33;;
39098;SDS011;24844;52.380;7.018;2023-05-14T08:50:01;3.63;;;3.33;;
39098;SDS011;24844;52.380;7.018;2023-05-14T08:52:30;4.88;;;4.07;;
39098;SDS011;24844;52.380;7.018;2023-05-14T08:55:00;5.75;;;3.85;;
39098;SDS011;24844;52.380;7.018;2023-05-14T08:57:29;8.07;;;4.55;;
39098;SDS011;24844;52.380;7.018;2023-05-14T08:59:59;4.85;;;3.78;;
39098;SDS011;24844;52.380;7.018;2023-05-14T09:02:28;6.28;;;3.95;;
39098;SDS011;24844;52.380;7.018;2023-05-14T09:04:56;5.82;;;4.00;;
39098;SDS011;24844;52.380;7.018;2023-05-14T09:07:23;4.15;;;3.75;;
39098;SDS011;24844;52.380;7.018;2023-05-14T09:09:52;5.93;;;3.67;;
39098;SDS011;24844;52.380;7.018;2023-05-14T09:12:18;3.65;;;2.80;;
39098;SDS011;24844;52.380;7.018;2023-05-14T09:14:45;8.73;;;3.45;;
39098;SDS011;24844;52.380;7.018;2023-05-14T09:17:12;2.78;;;2.58;;
39098;SDS011;24844;52.380;7.018;2023-05-14T09:19:41;4.95;;;3.25;;
39098;SDS011;24844;52.380;7.018;2023-05-14T09:22:11;4.57;;;3.78;;
39098;SDS011;24844;52.380;7.018;2023-05-14T09:24:38;3.80;;;3.30;;
39098;SDS011;24844;52.380;7.018;2023-05-14T09:27:04;3.88;;;3.10;;
39098;SDS011;24844;52.380;7.018;2023-05-14T09:29:30;4.70;;;3.47;;
39098;SDS011;24844;52.380;7.018;2023-05-14T09:31:56;3.63;;;3.15;;
39098;SDS011;24844;52.380;7.018;2023-05-14T09:34:24;4.17;;;3.47;;
39098;SDS011;24844;52.380;7.018;2023-05-14T09:36:58;4.28;;;3.88;;
39098;SDS011;24844;52.380;7.018;2023-05-14T09:39:26;4.93;;;3.97;;
39098;SDS011;24844;52.380;7.018;2023-05-14T09:41:53;4.32;;;3.92;;
39098;SDS011;24844;52.380;7.018;2023-05-14T09:44:19;4.03;;;3.00;;
39098;SDS011;24844;52.380;7.018;2023-05-14T09:46:45;3.00;;;2.60;;
39098;SDS011;24844;52.380;7.018;2023-05-14T09:49:11;5.13;;;3.15;;
39098;SDS011;24844;52.380;7.018;2023-05-14T09:51:37;3.55;;;2.25;;
39098;SDS011;24844;52.380;7.018;2023-05-14T09:54:03;3.33;;;2.03;;
39098;SDS011;24844;52.380;7.018;2023-05-14T09:56:30;5.50;;;2.25;;
39098;SDS011;24844;52.380;7.018;2023-05-14T09:58:59;4.70;;;2.30;;
39098;SDS011;24844;52.380;7.018;2023-05-14T10:01:25;4.32;;;2.80;;
39098;SDS011;24844;52.380;7.018;2023-05-14T10:03:55;5.57;;;2.20;;
39098;SDS011;24844;52.380;7.018;2023-05-14T10:06:22;3.10;;;1.80;;
39098;SDS011;24844;52.380;7.018;2023-05-14T10:08:52;2.83;;;2.10;;
39098;SDS011;24844;52.380;7.018;2023-05-14T10:11:21;3.55;;;1.80;;
39098;SDS011;24844;52.380;7.018;2023-05-14T10:14:32;4.25;;;1.98;;
39098;SDS011;24844;52.380;7.018;2023-05-14T10:16:46;9.43;;;2.50;;
39098;SDS011;24844;52.380;7.018;2023-05-14T10:19:14;4.93;;;2.20;;
39098;SDS011;24844;52.380;7.018;2023-05-14T10:21:40;5.43;;;2.08;;
39098;SDS011;24844;52.380;7.018;2023-05-14T10:24:12;2.45;;;2.20;;
39098;SDS011;24844;52.380;7.018;2023-05-14T10:26:39;2.78;;;2.13;;
39098;SDS011;24844;52.380;7.018;2023-05-14T10:29:06;3.97;;;2.33;;
39098;SDS011;24844;52.380;7.018;2023-05-14T10:31:49;5.25;;;2.53;;
39098;SDS011;24844;52.380;7.018;2023-05-14T10:34:34;3.70;;;2.63;;
39098;SDS011;24844;52.380;7.018;2023-05-14T10:37:05;3.55;;;2.40;;
39098;SDS011;24844;52.380;7.018;2023-05-14T10:39:41;4.90;;;2.30;;
39098;SDS011;24844;52.380;7.018;2023-05-14T10:42:15;2.30;;;2.08;;
39098;SDS011;24844;52.380;7.018;2023-05-14T10:44:54;10.35;;;2.13;;
39098;SDS011;24844;52.380;7.018;2023-05-14T10:47:22;5.70;;;2.30;;
39098;SDS011;24844;52.380;7.018;2023-05-14T10:49:49;3.13;;;2.40;;
39098;SDS011;24844;52.380;7.018;2023-05-14T10:52:18;4.68;;;2.38;;
39098;SDS011;24844;52.380;7.018;2023-05-14T10:54:51;3.45;;;2.00;;
39098;SDS011;24844;52.380;7.018;2023-05-14T10:57:19;3.67;;;1.90;;
39098;SDS011;24844;52.380;7.018;2023-05-14T10:59:50;5.32;;;2.25;;
39098;SDS011;24844;52.380;7.018;2023-05-14T11:04:51;6.32;;;2.30;;
39098;SDS011;24844;52.380;7.018;2023-05-14T11:07:23;2.83;;;1.85;;
39098;SDS011;24844;52.380;7.018;2023-05-14T11:09:52;3.75;;;2.20;;
39098;SDS011;24844;52.380;7.018;2023-05-14T11:12:23;3.05;;;2.40;;
39098;SDS011;24844;52.380;7.018;2023-05-14T11:14:50;2.30;;;1.83;;
39098;SDS011;24844;52.380;7.018;2023-05-14T11:17:15;3.67;;;1.98;;
39098;SDS011;24844;52.380;7.018;2023-05-14T11:19:42;2.63;;;2.30;;
39098;SDS011;24844;52.380;7.018;2023-05-14T11:22:08;4.20;;;2.17;;
39098;SDS011;24844;52.380;7.018;2023-05-14T11:24:37;4.10;;;2.53;;
39098;SDS011;24844;52.380;7.018;2023-05-14T11:27:03;4.70;;;2.25;;
39098;SDS011;24844;52.380;7.018;2023-05-14T11:29:29;2.95;;;2.10;;
39098;SDS011;24844;52.380;7.018;2023-05-14T11:31:55;4.13;;;2.08;;
39098;SDS011;24844;52.380;7.018;2023-05-14T11:34:20;3.72;;;2.10;;
39098;SDS011;24844;52.380;7.018;2023-05-14T11:36:46;4.55;;;2.05;;
39098;SDS011;24844;52.380;7.018;2023-05-14T11:39:16;2.53;;;1.90;;
39098;SDS011;24844;52.380;7.018;2023-05-14T11:41:43;2.55;;;1.98;;
39098;SDS011;24844;52.380;7.018;2023-05-14T11:44:10;5.15;;;2.40;;
39098;SDS011;24844;52.380;7.018;2023-05-14T11:46:35;3.35;;;2.05;;
39098;SDS011;24844;52.380;7.018;2023-05-14T11:49:04;7.72;;;2.33;;
39098;SDS011;24844;52.380;7.018;2023-05-14T11:51:30;3.80;;;2.47;;
39098;SDS011;24844;52.380;7.018;2023-05-14T11:53:56;7.25;;;2.83;;
39098;SDS011;24844;52.380;7.018;2023-05-14T11:56:24;3.22;;;1.80;;
39098;SDS011;24844;52.380;7.018;2023-05-14T11:58:56;6.45;;;2.38;;
39098;SDS011;24844;52.380;7.018;2023-05-14T12:01:22;6.50;;;2.63;;
39098;SDS011;24844;52.380;7.018;2023-05-14T12:03:48;2.45;;;2.08;;
39098;SDS011;24844;52.380;7.018;2023-05-14T12:06:14;5.13;;;2.60;;
39098;SDS011;24844;52.380;7.018;2023-05-14T12:08:40;4.55;;;2.63;;
39098;SDS011;24844;52.380;7.018;2023-05-14T12:11:05;4.57;;;2.08;;
39098;SDS011;24844;52.380;7.018;2023-05-14T12:13:33;2.45;;;2.20;;
39098;SDS011;24844;52.380;7.018;2023-05-14T12:16:00;5.75;;;2.35;;
39098;SDS011;24844;52.380;7.018;2023-05-14T12:18:27;2.85;;;2.10;;
39098;SDS011;24844;52.380;7.018;2023-05-14T12:20:54;2.88;;;2.38;;
39098;SDS011;24844;52.380;7.018;2023-05-14T12:23:29;3.92;;;2.40;;
39098;SDS011;24844;52.380;7.018;2023-05-14T12:26:02;2.47;;;1.98;;
39098;SDS011;24844;52.380;7.018;2023-05-14T12:28:30;2.50;;;1.88;;
39098;SDS011;24844;52.380;7.018;2023-05-14T12:30:56;3.35;;;2.05;;
39098;SDS011;24844;52.380;7.018;2023-05-14T12:33:22;2.80;;;2.00;;
39098;SDS011;24844;52.380;7.018;2023-05-14T12:35:48;3.08;;;2.00;;
39098;SDS011;24844;52.380;7.018;2023-05-14T12:38:14;5.38;;;2.53;;
39098;SDS011;24844;52.380;7.018;2023-05-14T12:40:41;3.70;;;2.45;;
39098;SDS011;24844;52.380;7.018;2023-05-14T12:43:06;4.43;;;2.30;;
39098;SDS011;24844;52.380;7.018;2023-05-14T12:45:32;2.67;;;1.75;;
39098;SDS011;24844;52.380;7.018;2023-05-14T12:47:58;3.08;;;2.00;;
39098;SDS011;24844;52.380;7.018;2023-05-14T12:50:24;4.93;;;1.80;;
39098;SDS011;24844;52.380;7.018;2023-05-14T12:52:49;5.05;;;2.15;;
39098;SDS011;24844;52.380;7.018;2023-05-14T12:55:15;3.33;;;1.80;;
39098;SDS011;24844;52.380;7.018;2023-05-14T12:57:40;5.88;;;2.15;;
39098;SDS011;24844;52.380;7.018;2023-05-14T13:00:07;3.08;;;2.20;;
39098;SDS011;24844;52.380;7.018;2023-05-14T13:02:36;3.05;;;1.90;;
39098;SDS011;24844;52.380;7.018;2023-05-14T13:05:02;5.25;;;1.90;;
39098;SDS011;24844;52.380;7.018;2023-05-14T13:07:28;5.18;;;2.03;;
39098;SDS011;24844;52.380;7.018;2023-05-14T13:09:54;2.58;;;1.95;;
39098;SDS011;24844;52.380;7.018;2023-05-14T13:12:20;6.13;;;1.83;;
39098;SDS011;24844;52.380;7.018;2023-05-14T13:14:47;1.77;;;1.63;;
39098;SDS011;24844;52.380;7.018;2023-05-14T13:17:12;3.60;;;1.90;;
39098;SDS011;24844;52.380;7.018;2023-05-14T13:19:38;5.00;;;2.00;;
39098;SDS011;24844;52.380;7.018;2023-05-14T13:22:04;3.45;;;2.00;;
39098;SDS011;24844;52.380;7.018;2023-05-14T13:24:29;4.78;;;2.05;;
39098;SDS011;24844;52.380;7.018;2023-05-14T13:26:55;6.75;;;2.55;;
39098;SDS011;24844;52.380;7.018;2023-05-14T13:29:20;6.18;;;2.05;;
39098;SDS011;24844;52.380;7.018;2023-05-14T13:31:46;5.45;;;1.80;;
39098;SDS011;24844;52.380;7.018;2023-05-14T13:34:12;6.35;;;1.80;;
39098;SDS011;24844;52.380;7.018;2023-05-14T13:36:37;2.85;;;2.03;;
39098;SDS011;24844;52.380;7.018;2023-05-14T13:39:06;2.85;;;1.75;;
39098;SDS011;24844;52.380;7.018;2023-05-14T13:41:32;3.60;;;1.80;;
39098;SDS011;24844;52.380;7.018;2023-05-14T13:43:59;2.72;;;1.70;;
39098;SDS011;24844;52.380;7.018;2023-05-14T13:46:25;5.35;;;2.15;;
39098;SDS011;24844;52.380;7.018;2023-05-14T13:48:50;2.80;;;2.10;;
39098;SDS011;24844;52.380;7.018;2023-05-14T13:51:16;3.03;;;1.77;;
39098;SDS011;24844;52.380;7.018;2023-05-14T13:53:41;5.03;;;2.20;;
39098;SDS011;24844;52.380;7.018;2023-05-14T13:56:08;4.25;;;1.90;;
39098;SDS011;24844;52.380;7.018;2023-05-14T13:58:33;2.38;;;1.77;;
39098;SDS011;24844;52.380;7.018;2023-05-14T14:00:59;3.53;;;2.05;;
39098;SDS011;24844;52.380;7.018;2023-05-14T14:03:24;3.33;;;1.70;;
39098;SDS011;24844;52.380;7.018;2023-05-14T14:05:50;5.88;;;1.90;;
39098;SDS011;24844;52.380;7.018;2023-05-14T14:08:16;5.20;;;1.92;;
39098;SDS011;24844;52.380;7.018;2023-05-14T14:10:42;5.45;;;2.05;;
39098;SDS011;24844;52.380;7.018;2023-05-14T14:13:08;3.13;;;1.80;;
39098;SDS011;24844;52.380;7.018;2023-05-14T14:15:34;1.95;;;1.80;;
39098;SDS011;24844;52.380;7.018;2023-05-14T14:18:00;4.55;;;1.95;;
39098;SDS011;24844;52.380;7.018;2023-05-14T14:20:27;1.88;;;1.65;;
39098;SDS011;24844;52.380;7.018;2023-05-14T14:22:53;4.10;;;1.70;;
39098;SDS011;24844;52.380;7.018;2023-05-14T14:25:18;4.43;;;2.00;;
39098;SDS011;24844;52.380;7.018;2023-05-14T14:27:44;3.25;;;1.77;;
39098;SDS011;24844;52.380;7.018;2023-05-14T14:30:10;9.60;;;2.03;;
39098;SDS011;24844;52.380;7.018;2023-05-14T14:32:45;2.38;;;1.50;;
39098;SDS011;24844;52.380;7.018;2023-05-14T14:35:12;2.13;;;1.40;;
39098;SDS011;24844;52.380;7.018;2023-05-14T14:37:40;3.97;;;1.40;;